Dickinson Center, New York
Current Conditions -  °F | °C
As of 6:24 PM on Wednesday 17 Dec 2014 (Local Time) from KMSS Reporting Station
Unknown Precip Unknown Precip  
Wind Chill: 29°   Ceiling: 1100
Heat Index: 35°   Visibility: 10mi
Dew Point: 33°   Wind: 7mph
Humidity: 92%   Direction: 250°WSW
Pressure: 29.8"   Gusts: NA
Location:  44.72°N, 74.55°W
Report Text: KMSS 172324Z AUTO 25006KT 10SM UP SCT007 BKN011 OVC043 02/01 A2980 RMK AO2 UPB2256 P0000 T00170006
Loading
Personal Weather Stations






























Interactive Weather Map New forecast layout! Learn more

10-Day Weather Forecast

Advertisements
Track Severe Weather on mobile